Time;durP1;ratioP1;P1;durP2;ratioP2;P2;SDS_P1;SDS_P2;PMS_P1;PMS_P2;Temp;Humidity;BMP_temperature;BMP_pressure;BME280_temperature;BME280_humidity;BME280_pressure;Samples;Min_cycle;Max_cycle;Signal;HPM_P1;HPM_P2
2022/06/20 00:01:34;;;;;;;20.97;19.67;;;;;;;;;;5033762;28;20411;-78
2022/06/20 00:04:01;;;;;;;21.60;20.10;;;;;;;;;;5034071;28;20498;-77
2022/06/20 00:06:30;;;;;;;20.40;19.30;;;;;;;;;;5033990;28;20459;-77
2022/06/20 00:08:57;;;;;;;22.37;20.60;;;;;;;;;;5034416;28;20436;-78
2022/06/20 00:11:26;;;;;;;21.27;19.90;;;;;;;;;;5034034;28;20851;-78
2022/06/20 00:13:54;;;;;;;21.90;20.37;;;;;;;;;;5034384;28;20451;-77
2022/06/20 00:16:22;;;;;;;21.80;20.40;;;;;;;;;;5033926;28;20407;-78
2022/06/20 00:18:50;;;;;;;21.40;19.90;;;;;;;;;;5034177;28;20455;-78
2022/06/20 00:21:18;;;;;;;21.67;20.40;;;;;;;;;;5034074;28;20468;-78
2022/06/20 00:23:47;;;;;;;21.70;20.20;;;;;;;;;;5033812;28;20451;-78
2022/06/20 00:26:15;;;;;;;20.90;19.60;;;;;;;;;;5033811;28;20451;-78
2022/06/20 00:28:42;;;;;;;21.30;19.83;;;;;;;;;;5033749;28;20444;-78
2022/06/20 00:31:10;;;;;;;22.40;20.77;;;;;;;;;;5033378;28;20458;-78
2022/06/20 00:33:37;;;;;;;21.00;19.87;;;;;;;;;;5033956;28;20456;-78
2022/06/20 00:36:05;;;;;;;23.37;21.73;;;;;;;;;;5033569;28;20445;-78
2022/06/20 00:38:32;;;;;;;21.30;20.10;;;;;;;;;;5033390;28;20475;-78
2022/06/20 00:41:03;;;;;;;21.80;20.60;;;;;;;;;;5033873;28;20467;-78
2022/06/20 00:43:33;;;;;;;21.97;20.57;;;;;;;;;;5032514;28;20971;-78
2022/06/20 00:46:03;;;;;;;23.33;21.70;;;;;;;;;;5033140;28;20438;-78
2022/06/20 00:48:32;;;;;;;23.27;21.77;;;;;;;;;;5033719;28;20491;-78
2022/06/20 00:51:02;;;;;;;22.57;20.93;;;;;;;;;;5033569;28;20484;-78
2022/06/20 00:53:31;;;;;;;22.43;20.93;;;;;;;;;;5033529;28;20418;-78
2022/06/20 00:56:00;;;;;;;22.10;20.80;;;;;;;;;;5033509;28;20445;-78
2022/06/20 00:58:32;;;;;;;23.00;21.50;;;;;;;;;;5033509;28;20436;-79
2022/06/20 01:01:00;;;;;;;23.23;21.63;;;;;;;;;;5032865;28;20415;-78
2022/06/20 01:03:29;;;;;;;23.07;21.67;;;;;;;;;;5033359;28;20459;-78
2022/06/20 01:05:58;;;;;;;23.57;22.17;;;;;;;;;;5033320;28;20439;-78
2022/06/20 01:08:26;;;;;;;23.13;21.53;;;;;;;;;;5033258;28;20407;-78
2022/06/20 01:10:56;;;;;;;23.60;22.10;;;;;;;;;;5033261;28;20476;-78
2022/06/20 01:13:25;;;;;;;23.60;22.27;;;;;;;;;;5032883;28;20422;-78
2022/06/20 01:15:55;;;;;;;23.50;21.90;;;;;;;;;;5032501;28;20857;-78
2022/06/20 01:18:25;;;;;;;23.43;21.77;;;;;;;;;;5032863;28;20472;-77
2022/06/20 01:20:53;;;;;;;23.63;22.23;;;;;;;;;;5032953;28;20454;-78
2022/06/20 01:23:25;;;;;;;25.83;24.13;;;;;;;;;;5032798;28;20449;-79
2022/06/20 01:26:04;;;;;;;24.10;22.60;;;;;;;;;;5032991;28;20450;-78
2022/06/20 01:28:35;;;;;;;25.20;23.40;;;;;;;;;;5032671;28;20436;-79
2022/06/20 01:31:02;;;;;;;25.50;23.70;;;;;;;;;;5032619;28;20480;-79
2022/06/20 01:33:30;;;;;;;24.83;23.20;;;;;;;;;;5032942;28;20422;-78
2022/06/20 01:38:44;;;;;;;25.27;23.77;;;;;;;;;;5032545;28;20482;-78
2022/06/20 01:44:00;;;;;;;24.77;22.97;;;;;;;;;;5032711;28;20804;-78
2022/06/20 01:46:29;;;;;;;25.40;23.70;;;;;;;;;;5032498;28;20927;-78
2022/06/20 01:49:02;;;;;;;25.10;23.60;;;;;;;;;;5032726;28;20806;-78
2022/06/20 01:51:32;;;;;;;24.70;23.23;;;;;;;;;;5032715;28;20463;-79
2022/06/20 01:53:59;;;;;;;25.30;23.80;;;;;;;;;;5032761;28;20452;-77
2022/06/20 01:56:28;;;;;;;25.80;24.00;;;;;;;;;;5036495;28;20448;-78
2022/06/20 01:58:58;;;;;;;25.10;23.47;;;;;;;;;;5036705;28;20448;-78
2022/06/20 02:01:28;;;;;;;24.47;23.03;;;;;;;;;;5036826;28;20418;-78
2022/06/20 02:03:55;;;;;;;25.20;23.37;;;;;;;;;;5036666;28;20465;-78
2022/06/20 02:06:23;;;;;;;25.10;23.17;;;;;;;;;;5036313;28;20873;-78
2022/06/20 02:08:52;;;;;;;25.87;24.10;;;;;;;;;;5036402;28;20441;-78
2022/06/20 02:11:21;;;;;;;25.60;23.90;;;;;;;;;;5036511;28;20487;-78
2022/06/20 02:13:52;;;;;;;25.87;24.07;;;;;;;;;;5036439;28;20425;-78
2022/06/20 02:16:20;;;;;;;25.40;23.80;;;;;;;;;;5036480;28;20419;-78
2022/06/20 02:18:51;;;;;;;25.60;23.70;;;;;;;;;;5036434;28;20455;-78
2022/06/20 02:21:21;;;;;;;26.40;24.60;;;;;;;;;;5036455;28;20503;-78
2022/06/20 02:23:51;;;;;;;26.90;25.20;;;;;;;;;;5036315;28;20489;-78
2022/06/20 02:26:18;;;;;;;25.70;24.10;;;;;;;;;;5035989;28;20506;-79
2022/06/20 02:28:49;;;;;;;27.93;26.03;;;;;;;;;;5035775;28;20448;-78
2022/06/20 02:31:17;;;;;;;30.23;27.73;;;;;;;;;;5036191;28;20880;-78
2022/06/20 02:33:44;;;;;;;30.83;28.40;;;;;;;;;;5036164;28;20490;-78
2022/06/20 02:36:13;;;;;;;30.10;28.00;;;;;;;;;;5036016;28;20436;-78
2022/06/20 02:38:40;;;;;;;31.93;29.43;;;;;;;;;;5035848;28;20567;-77
2022/06/20 02:41:09;;;;;;;31.67;29.17;;;;;;;;;;5036112;28;20482;-78
2022/06/20 02:43:38;;;;;;;30.13;28.13;;;;;;;;;;5035619;28;20443;-78
2022/06/20 02:46:07;;;;;;;29.63;27.13;;;;;;;;;;5035657;28;20440;-78
2022/06/20 02:48:35;;;;;;;27.63;25.63;;;;;;;;;;5035514;28;20949;-78
2022/06/20 02:51:06;;;;;;;33.97;30.57;;;;;;;;;;5035510;28;20537;-78
2022/06/20 02:53:38;;;;;;;45.00;41.97;;;;;;;;;;5035741;28;20436;-77
2022/06/20 02:56:06;;;;;;;45.60;42.77;;;;;;;;;;5035801;28;20436;-77
2022/06/20 02:58:35;;;;;;;45.30;42.30;;;;;;;;;;5035279;28;20925;-77
2022/06/20 03:01:04;;;;;;;45.83;42.93;;;;;;;;;;5035625;28;20448;-77
2022/06/20 03:03:32;;;;;;;51.00;47.10;;;;;;;;;;5035605;28;20444;-77
2022/06/20 03:06:00;;;;;;;50.30;47.17;;;;;;;;;;5034810;28;20514;-77
2022/06/20 03:08:28;;;;;;;51.83;48.30;;;;;;;;;;5035104;28;20447;-77
2022/06/20 03:11:01;;;;;;;54.30;50.20;;;;;;;;;;5035143;28;20488;-77
2022/06/20 03:13:28;;;;;;;53.93;50.47;;;;;;;;;;5035066;28;20471;-76
2022/06/20 03:15:56;;;;;;;65.80;61.77;;;;;;;;;;5034994;28;20490;-77
2022/06/20 03:18:24;;;;;;;56.93;53.00;;;;;;;;;;5035434;28;20436;-77
2022/06/20 03:20:52;;;;;;;60.97;57.13;;;;;;;;;;5035174;28;20479;-76
2022/06/20 03:23:22;;;;;;;63.53;59.93;;;;;;;;;;5035051;28;20959;-77
2022/06/20 03:25:50;;;;;;;60.03;56.33;;;;;;;;;;5035228;28;20495;-76
2022/06/20 03:28:21;;;;;;;60.90;56.80;;;;;;;;;;5034759;28;20440;-76
2022/06/20 03:30:49;;;;;;;60.53;55.60;;;;;;;;;;5035147;28;20486;-76
2022/06/20 03:33:17;;;;;;;61.73;57.23;;;;;;;;;;5035104;28;20441;-76
2022/06/20 03:35:46;;;;;;;60.43;56.87;;;;;;;;;;5034545;28;20543;-76
2022/06/20 03:38:14;;;;;;;61.43;57.73;;;;;;;;;;5034631;28;20437;-76
2022/06/20 03:40:42;;;;;;;65.13;61.20;;;;;;;;;;5034940;28;20447;-76
2022/06/20 03:43:11;;;;;;;64.80;60.60;;;;;;;;;;5034518;28;20463;-76
2022/06/20 03:45:42;;;;;;;64.20;60.00;;;;;;;;;;5034382;28;20423;-76
2022/06/20 03:48:11;;;;;;;58.23;54.83;;;;;;;;;;5034536;28;20474;-76
2022/06/20 03:50:41;;;;;;;62.23;58.20;;;;;;;;;;5034615;28;20407;-76
2022/06/20 03:53:11;;;;;;;56.70;53.47;;;;;;;;;;5034440;28;20435;-76
2022/06/20 03:55:42;;;;;;;57.83;54.67;;;;;;;;;;5034735;28;20440;-76
2022/06/20 03:58:13;;;;;;;57.53;54.00;;;;;;;;;;5034392;28;20444;-76
2022/06/20 04:00:45;;;;;;;58.30;54.70;;;;;;;;;;5034586;28;20448;-77
2022/06/20 04:03:14;;;;;;;55.27;52.17;;;;;;;;;;5034281;28;20499;-76
2022/06/20 04:05:45;;;;;;;55.07;51.67;;;;;;;;;;5034010;28;20495;-76
2022/06/20 04:08:15;;;;;;;52.57;49.80;;;;;;;;;;5034371;28;20444;-76
2022/06/20 04:11:01;;;;;;;56.57;52.57;;;;;;;;;;5034266;28;20483;-77
2022/06/20 04:13:30;;;;;;;55.80;52.27;;;;;;;;;;5033784;28;20497;-76
2022/06/20 04:16:02;;;;;;;55.77;52.43;;;;;;;;;;5034011;28;20444;-76
2022/06/20 04:18:31;;;;;;;58.47;53.90;;;;;;;;;;5034057;28;20981;-76
2022/06/20 04:21:10;;;;;;;55.87;52.67;;;;;;;;;;5034188;28;20467;-76
2022/06/20 04:23:40;;;;;;;53.83;50.50;;;;;;;;;;5034208;28;20440;-80
2022/06/20 04:26:11;;;;;;;48.90;45.63;;;;;;;;;;5034124;28;20910;-80
2022/06/20 04:28:42;;;;;;;50.77;47.37;;;;;;;;;;5033809;28;20440;-80
2022/06/20 04:31:19;;;;;;;48.67;45.70;;;;;;;;;;5033751;28;20480;-76
2022/06/20 04:33:49;;;;;;;48.63;45.97;;;;;;;;;;5033865;28;20432;-76
2022/06/20 04:36:21;;;;;;;53.73;50.50;;;;;;;;;;5033750;28;20455;-81
2022/06/20 04:38:51;;;;;;;50.07;46.57;;;;;;;;;;5033599;28;20476;-80
2022/06/20 04:41:22;;;;;;;46.43;43.53;;;;;;;;;;5033805;28;20868;-80
2022/06/20 04:43:52;;;;;;;41.97;39.60;;;;;;;;;;5033243;28;20407;-80
2022/06/20 04:46:23;;;;;;;44.37;41.47;;;;;;;;;;5033369;28;20473;-80
2022/06/20 04:48:51;;;;;;;41.50;39.00;;;;;;;;;;5033355;28;20432;-81
2022/06/20 04:51:20;;;;;;;42.17;39.57;;;;;;;;;;5033648;28;20454;-81
2022/06/20 04:53:49;;;;;;;40.00;37.40;;;;;;;;;;5033231;28;20922;-80
2022/06/20 04:56:25;;;;;;;41.33;38.73;;;;;;;;;;5033534;28;20447;-80
2022/06/20 04:58:54;;;;;;;42.40;39.90;;;;;;;;;;5033181;28;20442;-81
2022/06/20 05:01:22;;;;;;;38.60;35.50;;;;;;;;;;5033362;28;20429;-76
2022/06/20 05:03:55;;;;;;;40.10;37.60;;;;;;;;;;5033517;28;20448;-77
2022/06/20 05:06:23;;;;;;;39.93;37.17;;;;;;;;;;5032853;28;20900;-80
2022/06/20 05:08:54;;;;;;;40.60;37.50;;;;;;;;;;5033018;28;20794;-81
2022/06/20 05:11:24;;;;;;;39.37;36.67;;;;;;;;;;5015330;28;20484;-81
2022/06/20 05:13:54;;;;;;;39.97;36.60;;;;;;;;;;5032719;28;20816;-77
2022/06/20 05:16:25;;;;;;;38.20;35.47;;;;;;;;;;5033091;28;20430;-77
2022/06/20 05:18:54;;;;;;;37.33;34.90;;;;;;;;;;5032914;28;20451;-77
2022/06/20 05:21:22;;;;;;;36.23;33.90;;;;;;;;;;5033061;28;20472;-80
2022/06/20 05:23:51;;;;;;;38.57;35.87;;;;;;;;;;5032791;28;20441;-81
2022/06/20 05:26:19;;;;;;;37.27;34.53;;;;;;;;;;5033036;28;20448;-76
2022/06/20 05:28:49;;;;;;;38.57;36.07;;;;;;;;;;5032313;28;20432;-76
2022/06/20 05:31:18;;;;;;;32.40;30.30;;;;;;;;;;5032029;28;20450;-77
2022/06/20 05:33:49;;;;;;;32.43;30.33;;;;;;;;;;5032735;28;20429;-77
2022/06/20 05:36:21;;;;;;;34.17;31.63;;;;;;;;;;5032736;28;20407;-77
2022/06/20 05:38:51;;;;;;;33.97;31.37;;;;;;;;;;5032646;28;20487;-81
2022/06/20 05:41:20;;;;;;;32.77;30.30;;;;;;;;;;5032591;28;20877;-82
2022/06/20 05:43:47;;;;;;;33.87;31.40;;;;;;;;;;5032598;28;20433;-81
2022/06/20 05:46:16;;;;;;;31.20;29.00;;;;;;;;;;5032462;28;20440;-78
2022/06/20 05:48:48;;;;;;;31.90;29.53;;;;;;;;;;5032416;28;20432;-77
2022/06/20 05:51:19;;;;;;;33.03;30.73;;;;;;;;;;5032367;28;20914;-78
2022/06/20 05:53:47;;;;;;;34.00;31.70;;;;;;;;;;5032836;28;20440;-81
2022/06/20 05:56:17;;;;;;;32.13;29.93;;;;;;;;;;5032387;28;20437;-80
2022/06/20 05:58:45;;;;;;;33.40;30.67;;;;;;;;;;5032612;28;20506;-80
2022/06/20 06:01:17;;;;;;;30.47;28.00;;;;;;;;;;5027832;28;20443;-79
2022/06/20 06:03:46;;;;;;;31.73;29.60;;;;;;;;;;5028752;28;20412;-80
2022/06/20 06:06:18;;;;;;;33.03;30.67;;;;;;;;;;5032752;28;20498;-83
2022/06/20 06:08:48;;;;;;;30.90;29.00;;;;;;;;;;5032763;28;20914;-85
2022/06/20 06:11:17;;;;;;;30.57;28.57;;;;;;;;;;5033118;28;20440;-84
2022/06/20 06:13:46;;;;;;;30.60;28.50;;;;;;;;;;5032849;28;20906;-87
2022/06/20 06:19:05;;;;;;;28.27;26.30;;;;;;;;;;5033653;28;20766;-89
2022/06/20 06:21:34;;;;;;;29.90;28.00;;;;;;;;;;5033856;28;21076;-90
2022/06/20 06:24:03;;;;;;;29.20;27.00;;;;;;;;;;5033658;28;20499;-89
2022/06/20 06:26:30;;;;;;;30.80;28.47;;;;;;;;;;5033906;28;20445;-89
2022/06/20 06:28:58;;;;;;;26.60;24.80;;;;;;;;;;5033530;28;20441;-89
2022/06/20 06:31:27;;;;;;;25.67;23.47;;;;;;;;;;5033601;28;20418;-88
2022/06/20 06:33:57;;;;;;;26.70;25.10;;;;;;;;;;5033569;28;20429;-88
2022/06/20 06:36:30;;;;;;;26.60;24.53;;;;;;;;;;5033637;28;20436;-88
2022/06/20 06:39:00;;;;;;;25.77;23.93;;;;;;;;;;5033537;28;20484;-89
2022/06/20 06:41:31;;;;;;;25.30;23.50;;;;;;;;;;5035577;28;20488;-88
2022/06/20 06:43:59;;;;;;;22.80;21.30;;;;;;;;;;5036966;28;20432;-89
2022/06/20 06:46:31;;;;;;;21.70;20.30;;;;;;;;;;5037538;28;20427;-89
2022/06/20 06:49:07;;;;;;;23.17;21.27;;;;;;;;;;5037235;28;20414;-89
2022/06/20 06:51:37;;;;;;;22.27;21.00;;;;;;;;;;5037310;28;20470;-88
2022/06/20 06:54:09;;;;;;;21.73;20.23;;;;;;;;;;5037314;28;20482;-88
2022/06/20 06:56:42;;;;;;;22.27;20.37;;;;;;;;;;5037235;28;20406;-89
2022/06/20 06:59:13;;;;;;;21.70;20.10;;;;;;;;;;5036776;28;20877;-88
2022/06/20 07:01:43;;;;;;;21.37;19.97;;;;;;;;;;5019245;28;20525;-88
2022/06/20 07:04:13;;;;;;;21.93;20.10;;;;;;;;;;5036957;28;20452;-89
2022/06/20 07:06:44;;;;;;;21.63;20.00;;;;;;;;;;5036939;28;20436;-88
2022/06/20 07:09:14;;;;;;;21.13;19.53;;;;;;;;;;5036940;28;20432;-88
2022/06/20 07:11:45;;;;;;;21.20;19.70;;;;;;;;;;5036748;28;20976;-96
2022/06/20 07:14:17;;;;;;;21.70;19.90;;;;;;;;;;5037200;28;20414;-85
2022/06/20 07:16:47;;;;;;;21.03;19.63;;;;;;;;;;5035976;28;21061;-89
2022/06/20 07:19:15;;;;;;;21.47;19.83;;;;;;;;;;5036157;28;20447;-84
2022/06/20 07:21:43;;;;;;;21.03;19.63;;;;;;;;;;5035915;28;20437;-85
2022/06/20 07:24:14;;;;;;;20.80;19.37;;;;;;;;;;5036067;28;20436;-85
2022/06/20 07:26:45;;;;;;;22.40;20.17;;;;;;;;;;5035684;28;20436;-85
2022/06/20 07:29:14;;;;;;;21.80;20.20;;;;;;;;;;5036059;28;20444;-85
2022/06/20 07:31:43;;;;;;;21.67;20.10;;;;;;;;;;5035816;28;20759;-85
2022/06/20 07:34:13;;;;;;;21.97;20.53;;;;;;;;;;5035865;28;20448;-83
2022/06/20 07:36:43;;;;;;;21.60;20.10;;;;;;;;;;5035162;28;20929;-85
2022/06/20 07:39:14;;;;;;;22.77;20.57;;;;;;;;;;5035281;28;20496;-84
2022/06/20 07:41:45;;;;;;;21.80;20.00;;;;;;;;;;5035080;28;20851;-84
2022/06/20 07:44:14;;;;;;;22.53;20.73;;;;;;;;;;5035071;28;20441;-84
2022/06/20 07:46:43;;;;;;;23.77;21.67;;;;;;;;;;5035213;28;20502;-84
2022/06/20 07:49:14;;;;;;;23.20;21.40;;;;;;;;;;5035292;28;20978;-85
2022/06/20 07:51:42;;;;;;;23.47;21.97;;;;;;;;;;5035356;28;20448;-85
2022/06/20 07:54:11;;;;;;;23.80;22.00;;;;;;;;;;5034471;28;20449;-83
2022/06/20 07:56:41;;;;;;;22.73;21.13;;;;;;;;;;5034874;28;20486;-84
2022/06/20 07:59:11;;;;;;;23.17;21.40;;;;;;;;;;5035385;28;20415;-85
2022/06/20 08:01:49;;;;;;;23.83;21.07;;;;;;;;;;5034960;28;20424;-85
2022/06/20 08:04:18;;;;;;;23.80;22.20;;;;;;;;;;5035141;28;20410;-85
2022/06/20 08:06:49;;;;;;;23.80;21.90;;;;;;;;;;5034473;28;20419;-83
2022/06/20 08:09:20;;;;;;;24.13;22.10;;;;;;;;;;5034719;28;20910;-84
2022/06/20 08:11:49;;;;;;;24.10;21.90;;;;;;;;;;5034339;28;20411;-84
2022/06/20 08:14:22;;;;;;;24.43;22.63;;;;;;;;;;5034914;28;20761;-84
2022/06/20 08:16:51;;;;;;;23.17;21.37;;;;;;;;;;5034950;28;20833;-85
2022/06/20 08:19:19;;;;;;;23.77;21.97;;;;;;;;;;5034366;28;20451;-84
2022/06/20 08:21:48;;;;;;;24.03;21.97;;;;;;;;;;5034314;28;20444;-84
2022/06/20 08:24:17;;;;;;;23.90;22.37;;;;;;;;;;5016552;28;20455;-85
2022/06/20 08:26:47;;;;;;;24.43;22.63;;;;;;;;;;5035015;28;20514;-85
2022/06/20 08:29:16;;;;;;;25.83;23.53;;;;;;;;;;5033639;28;20444;-85
2022/06/20 08:31:47;;;;;;;24.70;22.70;;;;;;;;;;5034909;28;20444;-85
2022/06/20 08:34:16;;;;;;;24.77;22.73;;;;;;;;;;5034720;28;20479;-85
2022/06/20 08:36:48;;;;;;;25.27;23.40;;;;;;;;;;5034096;28;20934;-85
2022/06/20 08:39:20;;;;;;;24.27;22.77;;;;;;;;;;5034262;28;20570;-85
2022/06/20 08:41:57;;;;;;;23.17;21.43;;;;;;;;;;5034516;28;20913;-85
2022/06/20 08:44:43;;;;;;;23.57;21.93;;;;;;;;;;5034386;28;20911;-84
2022/06/20 08:47:28;;;;;;;23.60;21.90;;;;;;;;;;5034208;28;20444;-83
2022/06/20 08:50:09;;;;;;;23.63;22.23;;;;;;;;;;5033268;28;20452;-84
2022/06/20 08:52:55;;;;;;;23.83;22.10;;;;;;;;;;5034076;28;20455;-83
2022/06/20 08:55:35;;;;;;;22.63;20.63;;;;;;;;;;5033914;28;20436;-83
2022/06/20 08:58:06;;;;;;;22.20;20.77;;;;;;;;;;5033330;28;20419;-84
2022/06/20 09:00:36;;;;;;;21.47;20.13;;;;;;;;;;5033799;28;20448;-84
2022/06/20 09:03:28;;;;;;;22.27;20.77;;;;;;;;;;5034237;28;20436;-87
2022/06/20 09:06:15;;;;;;;21.90;20.43;;;;;;;;;;5033327;28;20539;-85
2022/06/20 09:09:09;;;;;;;22.57;21.10;;;;;;;;;;5025586;28;20494;-84
2022/06/20 09:11:50;;;;;;;23.13;21.43;;;;;;;;;;5014160;28;20440;-85
2022/06/20 09:14:47;;;;;;;22.93;21.37;;;;;;;;;;5014214;28;20484;-85
2022/06/20 09:17:18;;;;;;;22.93;21.20;;;;;;;;;;4953886;29;20468;-85
2022/06/20 09:19:51;;;;;;;23.40;21.60;;;;;;;;;;4953843;29;20451;-86
2022/06/20 09:22:26;;;;;;;22.77;21.17;;;;;;;;;;4954103;29;20452;-85
2022/06/20 09:25:02;;;;;;;22.50;20.90;;;;;;;;;;4953770;29;20897;-85
2022/06/20 09:27:37;;;;;;;24.27;22.57;;;;;;;;;;4953843;29;20937;-86
2022/06/20 09:30:06;;;;;;;23.60;21.97;;;;;;;;;;4953593;29;20443;-85
2022/06/20 09:32:48;;;;;;;23.50;21.90;;;;;;;;;;4953385;29;20567;-85
2022/06/20 09:35:33;;;;;;;22.73;21.20;;;;;;;;;;4953586;29;20440;-85
2022/06/20 09:38:15;;;;;;;23.27;21.23;;;;;;;;;;4953438;29;20447;-86
2022/06/20 09:40:44;;;;;;;22.80;21.30;;;;;;;;;;4953472;29;20785;-86
2022/06/20 09:43:19;;;;;;;24.00;21.97;;;;;;;;;;4953079;29;20450;-85
2022/06/20 09:45:51;;;;;;;22.63;21.20;;;;;;;;;;4953336;29;20526;-85
2022/06/20 09:48:22;;;;;;;23.00;21.40;;;;;;;;;;4953577;29;20511;-86
2022/06/20 09:50:55;;;;;;;24.27;22.23;;;;;;;;;;4969674;28;20938;-85
2022/06/20 09:53:34;;;;;;;23.90;21.97;;;;;;;;;;5013933;28;20481;-84
2022/06/20 09:56:07;;;;;;;23.40;21.70;;;;;;;;;;5013696;28;20453;-85
2022/06/20 09:58:38;;;;;;;21.97;20.67;;;;;;;;;;5013998;28;20433;-85
2022/06/20 10:01:10;;;;;;;22.90;21.43;;;;;;;;;;5013441;28;20935;-85
2022/06/20 10:03:40;;;;;;;23.20;21.70;;;;;;;;;;5013394;28;20539;-85
2022/06/20 10:06:11;;;;;;;23.20;21.80;;;;;;;;;;5013189;28;20449;-85
2022/06/20 10:08:44;;;;;;;23.70;22.10;;;;;;;;;;5013742;28;20438;-86
2022/06/20 10:11:15;;;;;;;24.20;22.40;;;;;;;;;;5013630;28;20412;-86
2022/06/20 10:13:49;;;;;;;22.73;21.40;;;;;;;;;;5013347;28;20497;-86
2022/06/20 10:16:22;;;;;;;23.33;21.87;;;;;;;;;;5015529;28;20863;-85
2022/06/20 10:18:55;;;;;;;21.87;20.57;;;;;;;;;;5017626;28;20420;-86
2022/06/20 10:21:25;;;;;;;22.90;21.40;;;;;;;;;;5017200;28;20449;-86
2022/06/20 10:24:01;;;;;;;21.77;20.50;;;;;;;;;;5017243;28;20453;-86
2022/06/20 10:26:38;;;;;;;23.40;21.77;;;;;;;;;;5017285;28;20463;-85
2022/06/20 10:29:11;;;;;;;22.20;20.70;;;;;;;;;;5017588;28;20436;-86
2022/06/20 10:31:41;;;;;;;23.73;22.03;;;;;;;;;;5017026;28;20419;-86
2022/06/20 10:34:10;;;;;;;24.30;22.60;;;;;;;;;;5017406;28;20488;-87
2022/06/20 10:36:45;;;;;;;23.70;22.20;;;;;;;;;;5017417;28;20472;-86
2022/06/20 10:39:22;;;;;;;23.20;21.80;;;;;;;;;;5016665;28;20982;-84
2022/06/20 10:41:57;;;;;;;23.40;22.00;;;;;;;;;;5016956;28;20412;-86
2022/06/20 10:44:27;;;;;;;23.10;21.60;;;;;;;;;;5017124;28;20426;-86
2022/06/20 10:46:57;;;;;;;24.53;22.77;;;;;;;;;;4999564;28;20485;-79
2022/06/20 10:49:40;;;;;;;24.70;23.20;;;;;;;;;;5033054;28;20442;-79
2022/06/20 10:52:14;;;;;;;24.20;22.03;;;;;;;;;;5032258;28;20434;-84
2022/06/20 10:54:50;;;;;;;24.63;23.00;;;;;;;;;;5036000;28;20457;-86
2022/06/20 10:57:21;;;;;;;23.20;21.50;;;;;;;;;;5037323;28;20414;-94
2022/06/20 10:59:53;;;;;;;22.93;21.53;;;;;;;;;;5037349;28;20463;-89
2022/06/20 11:02:29;;;;;;;25.83;24.00;;;;;;;;;;5037214;28;20423;-92
2022/06/20 11:05:04;;;;;;;24.03;22.47;;;;;;;;;;5037204;28;20443;-93
2022/06/20 11:07:35;;;;;;;23.67;22.20;;;;;;;;;;5019143;28;20447;-86
2022/06/20 11:10:07;;;;;;;25.33;23.63;;;;;;;;;;5018338;28;20849;-95
2022/06/20 11:12:40;;;;;;;22.73;21.43;;;;;;;;;;5017708;28;20843;-94
2022/06/20 11:15:13;;;;;;;23.77;22.17;;;;;;;;;;5017623;28;20983;-93
2022/06/20 11:17:46;;;;;;;23.33;21.93;;;;;;;;;;5017803;28;20409;-93
2022/06/20 11:20:19;;;;;;;24.17;22.67;;;;;;;;;;5017248;28;20473;-90
2022/06/20 11:22:51;;;;;;;24.70;23.00;;;;;;;;;;5017047;28;20471;-90
2022/06/20 11:25:31;;;;;;;23.60;22.10;;;;;;;;;;5016876;28;20882;-91
2022/06/20 11:28:09;;;;;;;23.93;22.40;;;;;;;;;;5015734;28;20423;-91
2022/06/20 11:30:41;;;;;;;23.73;22.07;;;;;;;;;;5016831;28;20407;-90
2022/06/20 11:33:19;;;;;;;24.27;22.77;;;;;;;;;;4999155;28;20526;-91
2022/06/20 11:35:50;;;;;;;23.83;22.53;;;;;;;;;;5023227;28;20448;-81
2022/06/20 11:38:35;;;;;;;24.50;22.90;;;;;;;;;;5035091;28;20848;-80
2022/06/20 11:41:06;;;;;;;25.10;23.50;;;;;;;;;;5034856;28;20946;-84
2022/06/20 11:43:54;;;;;;;24.17;22.77;;;;;;;;;;5035225;28;20418;-84
2022/06/20 11:46:27;;;;;;;25.80;23.97;;;;;;;;;;5035261;28;20806;-83
2022/06/20 11:48:58;;;;;;;25.27;23.70;;;;;;;;;;5034944;28;20888;-83
2022/06/20 11:51:28;;;;;;;25.17;23.30;;;;;;;;;;5035019;28;20933;-83
2022/06/20 11:54:02;;;;;;;25.80;24.20;;;;;;;;;;5035049;28;20533;-83
2022/06/20 11:56:34;;;;;;;24.27;22.77;;;;;;;;;;5034391;28;20426;-83
2022/06/20 11:59:10;;;;;;;24.10;22.70;;;;;;;;;;5035041;28;20498;-83
2022/06/20 12:01:41;;;;;;;23.33;21.93;;;;;;;;;;5034620;28;20764;-84
2022/06/20 12:04:10;;;;;;;26.10;24.50;;;;;;;;;;5034863;28;20425;-83
2022/06/20 12:06:41;;;;;;;25.97;24.33;;;;;;;;;;5034851;28;20415;-84
2022/06/20 12:09:15;;;;;;;26.07;24.37;;;;;;;;;;5034589;28;20830;-84
2022/06/20 12:11:51;;;;;;;25.20;23.80;;;;;;;;;;5034593;28;20418;-84
2022/06/20 12:14:28;;;;;;;23.80;22.40;;;;;;;;;;5034622;28;20920;-84
2022/06/20 12:17:02;;;;;;;23.80;22.30;;;;;;;;;;5034578;28;20443;-83
2022/06/20 12:25:24;;;;;;;24.63;23.03;;;;;;;;;;5034448;28;20399;-83
2022/06/20 12:27:53;;;;;;;24.07;22.67;;;;;;;;;;5034572;28;20497;-84
2022/06/20 12:30:20;;;;;;;27.17;25.37;;;;;;;;;;5034421;28;20432;-84
2022/06/20 12:32:50;;;;;;;25.43;23.93;;;;;;;;;;5034319;28;20441;-84
2022/06/20 12:35:21;;;;;;;24.60;23.20;;;;;;;;;;5034250;28;20479;-84
2022/06/20 12:37:53;;;;;;;26.30;24.80;;;;;;;;;;5033896;28;20440;-84
2022/06/20 12:40:23;;;;;;;26.70;24.80;;;;;;;;;;5033696;28;20491;-83
2022/06/20 12:42:56;;;;;;;26.57;24.63;;;;;;;;;;5033897;28;20914;-84
2022/06/20 12:45:37;;;;;;;26.13;24.53;;;;;;;;;;5033478;28;20451;-83
2022/06/20 12:48:29;;;;;;;26.10;24.40;;;;;;;;;;5034038;28;20440;-83
2022/06/20 12:51:01;;;;;;;26.80;25.10;;;;;;;;;;5006145;28;20543;-84
2022/06/20 12:53:37;;;;;;;27.50;25.37;;;;;;;;;;5013850;28;20492;-83
2022/06/20 12:56:09;;;;;;;26.37;24.60;;;;;;;;;;5013888;28;20923;-84
2022/06/20 12:58:54;;;;;;;25.90;24.03;;;;;;;;;;5014170;28;20441;-84
2022/06/20 13:01:26;;;;;;;26.23;24.70;;;;;;;;;;4965648;28;20531;-85
2022/06/20 13:04:08;;;;;;;25.00;23.40;;;;;;;;;;5014007;28;20805;-84
2022/06/20 13:06:47;;;;;;;26.50;24.90;;;;;;;;;;4993041;28;20449;-84
2022/06/20 13:09:32;;;;;;;25.63;24.03;;;;;;;;;;5013763;28;20495;-84
2022/06/20 13:12:04;;;;;;;24.87;23.37;;;;;;;;;;4996105;28;20532;-84
2022/06/20 13:14:37;;;;;;;26.40;24.60;;;;;;;;;;5013837;28;20966;-84
2022/06/20 13:17:14;;;;;;;24.80;23.30;;;;;;;;;;5013621;28;20518;-84
2022/06/20 13:19:59;;;;;;;25.60;23.93;;;;;;;;;;5013441;28;20480;-84
2022/06/20 13:22:29;;;;;;;25.97;24.33;;;;;;;;;;5013259;28;20927;-84
2022/06/20 13:25:01;;;;;;;25.40;23.80;;;;;;;;;;5013453;28;20915;-84
2022/06/20 13:27:42;;;;;;;25.60;24.00;;;;;;;;;;5013736;28;20439;-84
2022/06/20 13:30:16;;;;;;;24.33;22.67;;;;;;;;;;5013734;28;20440;-84
2022/06/20 13:32:48;;;;;;;24.07;22.47;;;;;;;;;;4995833;28;20930;-82
2022/06/20 13:35:19;;;;;;;24.80;23.00;;;;;;;;;;5013522;28;20489;-83
2022/06/20 13:37:52;;;;;;;25.30;23.70;;;;;;;;;;5013082;28;20414;-83
2022/06/20 13:40:40;;;;;;;25.40;23.60;;;;;;;;;;5013173;28;20488;-83
2022/06/20 13:43:14;;;;;;;26.03;24.03;;;;;;;;;;5005884;28;20868;-84
2022/06/20 13:45:46;;;;;;;26.07;24.30;;;;;;;;;;5013482;28;20500;-83
2022/06/20 13:48:17;;;;;;;25.73;24.13;;;;;;;;;;5013285;28;20468;-83
2022/06/20 13:50:46;;;;;;;25.27;23.70;;;;;;;;;;5012753;28;20466;-83
2022/06/20 13:53:17;;;;;;;26.90;25.00;;;;;;;;;;5013052;28;20423;-83
2022/06/20 13:55:47;;;;;;;25.47;23.67;;;;;;;;;;5013223;28;20505;-84
2022/06/20 13:58:20;;;;;;;23.70;22.13;;;;;;;;;;5013308;28;20452;-82
2022/06/20 14:00:55;;;;;;;25.03;23.23;;;;;;;;;;5013108;28;20565;-83
2022/06/20 14:03:26;;;;;;;24.37;22.77;;;;;;;;;;5013075;28;20476;-83
2022/06/20 14:06:04;;;;;;;24.67;23.07;;;;;;;;;;5013198;28;20537;-83
2022/06/20 14:08:32;;;;;;;25.93;24.23;;;;;;;;;;5012986;28;20433;-83
2022/06/20 14:11:00;;;;;;;23.33;21.83;;;;;;;;;;5013172;28;20500;-84
2022/06/20 14:13:30;;;;;;;24.53;22.90;;;;;;;;;;5012898;28;20423;-82
2022/06/20 14:16:16;;;;;;;23.47;21.97;;;;;;;;;;5012828;28;20451;-81
2022/06/20 14:18:47;;;;;;;24.80;22.80;;;;;;;;;;5012985;28;20447;-83
2022/06/20 14:21:15;;;;;;;24.00;22.40;;;;;;;;;;5012965;28;20419;-82
2022/06/20 14:23:48;;;;;;;24.40;22.73;;;;;;;;;;5013029;28;20449;-82
2022/06/20 14:26:25;;;;;;;24.30;22.70;;;;;;;;;;5012708;28;20535;-82
2022/06/20 14:28:53;;;;;;;24.40;22.60;;;;;;;;;;5012624;28;20447;-80
2022/06/20 14:31:22;;;;;;;24.83;23.27;;;;;;;;;;5012873;28;20416;-82
2022/06/20 14:33:53;;;;;;;24.73;23.17;;;;;;;;;;5012817;28;20437;-82
2022/06/20 14:36:22;;;;;;;25.37;23.60;;;;;;;;;;5012743;28;20416;-82
2022/06/20 14:38:53;;;;;;;24.50;22.70;;;;;;;;;;5012681;28;20483;-82
2022/06/20 14:41:42;;;;;;;23.73;22.20;;;;;;;;;;5012843;28;20916;-83
2022/06/20 14:44:17;;;;;;;24.40;22.70;;;;;;;;;;5012684;28;20423;-83
2022/06/20 14:46:50;;;;;;;24.50;22.80;;;;;;;;;;5012402;28;20407;-82
2022/06/20 14:49:22;;;;;;;24.73;22.80;;;;;;;;;;5012647;28;20739;-83
2022/06/20 14:51:54;;;;;;;24.90;23.30;;;;;;;;;;5012335;28;20503;-83
2022/06/20 14:54:25;;;;;;;24.33;22.63;;;;;;;;;;5012262;28;20982;-83
2022/06/20 14:56:54;;;;;;;25.20;23.60;;;;;;;;;;5012478;28;20960;-83